createdAt,value
2022-10-07T00:01:06.085Z,8.60
2022-10-07T00:03:34.665Z,8.60
2022-10-07T00:06:17.875Z,8.60
2022-10-07T00:08:48.220Z,8.50
2022-10-07T00:11:25.869Z,8.50
2022-10-07T00:13:59.931Z,8.40
2022-10-07T00:16:34.873Z,8.40
2022-10-07T00:19:06.189Z,8.40
2022-10-07T00:21:35.709Z,8.40
2022-10-07T00:24:04.812Z,8.30
2022-10-07T00:26:35.731Z,8.30
2022-10-07T00:29:05.805Z,8.30
2022-10-07T00:31:36.443Z,8.20
2022-10-07T00:34:05.209Z,8.20
2022-10-07T00:36:37.346Z,8.20
2022-10-07T00:39:12.378Z,8.20
2022-10-07T00:41:52.008Z,8.20
2022-10-07T00:44:34.163Z,8.10
2022-10-07T00:47:24.124Z,8.10
2022-10-07T00:50:04.086Z,8.10
2022-10-07T00:52:39.110Z,8.00
2022-10-07T00:55:13.067Z,8.00
2022-10-07T00:57:42.580Z,8.00
2022-10-07T01:00:11.087Z,8.00
2022-10-07T01:02:39.359Z,7.90
2022-10-07T01:05:09.499Z,7.90
2022-10-07T01:07:38.128Z,7.90
2022-10-07T01:10:07.089Z,7.90
2022-10-07T01:12:59.274Z,7.80
2022-10-07T01:15:54.508Z,7.80
2022-10-07T01:18:49.488Z,7.70
2022-10-07T01:22:05.573Z,7.70
2022-10-07T01:24:50.821Z,7.70
2022-10-07T01:27:22.652Z,7.70
2022-10-07T01:30:05.158Z,7.60
2022-10-07T01:32:49.460Z,7.60
2022-10-07T01:35:25.109Z,7.60
2022-10-07T01:38:00.342Z,7.60
2022-10-07T01:40:39.755Z,7.50
2022-10-07T01:43:07.126Z,7.50
2022-10-07T01:45:40.906Z,7.50
2022-10-07T01:48:08.631Z,7.50
2022-10-07T01:50:37.628Z,7.50
2022-10-07T01:53:15.249Z,7.50
2022-10-07T01:56:29.270Z,7.40
2022-10-07T01:59:21.820Z,7.40
2022-10-07T02:02:26.352Z,7.30
2022-10-07T02:05:26.314Z,7.30
2022-10-07T02:08:31.340Z,7.30
2022-10-07T02:11:25.514Z,7.20
2022-10-07T02:14:14.070Z,7.20
2022-10-07T02:16:57.111Z,7.20
2022-10-07T02:19:37.221Z,7.20
2022-10-07T02:22:07.002Z,7.20
2022-10-07T02:24:37.536Z,7.10
2022-10-07T02:27:13.834Z,7.10
2022-10-07T02:29:45.882Z,7.10
2022-10-07T02:32:21.111Z,7.10
2022-10-07T02:35:00.406Z,7.10
2022-10-07T02:37:33.933Z,7.00
2022-10-07T02:40:07.126Z,7.00
2022-10-07T02:42:59.494Z,7.00
2022-10-07T02:45:46.003Z,7.00
2022-10-07T02:48:30.559Z,6.90
2022-10-07T02:51:06.070Z,6.90
2022-10-07T02:53:34.682Z,6.90
2022-10-07T02:56:03.729Z,6.90
2022-10-07T02:58:31.070Z,6.90
2022-10-07T03:01:02.292Z,6.90
2022-10-07T03:03:30.322Z,6.80
2022-10-07T03:06:01.678Z,6.80
2022-10-07T03:08:29.874Z,6.80
2022-10-07T03:10:57.449Z,6.80
2022-10-07T03:13:25.295Z,6.80
2022-10-07T03:15:57.096Z,6.70
2022-10-07T03:18:27.276Z,6.70
2022-10-07T03:21:08.544Z,6.70
2022-10-07T03:23:35.490Z,6.70
2022-10-07T03:26:02.382Z,6.70
2022-10-07T03:28:33.289Z,6.60
2022-10-07T03:31:09.949Z,6.60
2022-10-07T03:33:40.432Z,6.60
2022-10-07T03:36:09.104Z,6.60
2022-10-07T03:38:37.548Z,6.60
2022-10-07T03:41:04.778Z,6.60
2022-10-07T03:43:33.709Z,6.50
2022-10-07T03:46:02.404Z,6.50
2022-10-07T03:48:31.540Z,6.50
2022-10-07T03:50:59.374Z,6.50
2022-10-07T03:53:29.850Z,6.50
2022-10-07T03:55:58.937Z,6.40
2022-10-07T03:58:25.871Z,6.40
2022-10-07T04:00:52.822Z,6.40
2022-10-07T04:03:20.550Z,6.40
2022-10-07T04:06:01.417Z,6.40
2022-10-07T04:08:32.838Z,6.30
2022-10-07T04:11:03.758Z,6.30
2022-10-07T04:13:31.977Z,6.30
2022-10-07T04:15:59.154Z,6.30
2022-10-07T04:18:26.759Z,6.20
2022-10-07T04:20:54.364Z,6.20
2022-10-07T04:23:21.793Z,6.20
2022-10-07T04:25:48.682Z,6.20
2022-10-07T04:28:22.365Z,6.20
2022-10-07T04:30:54.549Z,6.20
2022-10-07T04:33:27.154Z,6.20
2022-10-07T04:35:56.028Z,6.10
2022-10-07T04:38:28.107Z,6.10
2022-10-07T04:40:56.870Z,6.10
2022-10-07T04:43:24.195Z,6.10
2022-10-07T04:46:17.313Z,6.00
2022-10-07T04:48:52.329Z,6.00
2022-10-07T04:51:23.697Z,6.00
2022-10-07T04:53:56.805Z,6.00
2022-10-07T04:56:31.162Z,6.00
2022-10-07T04:58:58.355Z,6.00
2022-10-07T05:01:25.694Z,6.00
2022-10-07T05:03:52.715Z,5.90
2022-10-07T05:06:20.707Z,5.90
2022-10-07T05:08:49.780Z,5.90
2022-10-07T05:11:16.626Z,5.90
2022-10-07T05:13:52.481Z,5.90
2022-10-07T05:16:21.055Z,5.90
2022-10-07T05:18:47.950Z,5.90
2022-10-07T05:21:16.331Z,5.80
2022-10-07T05:23:46.028Z,5.80
2022-10-07T05:26:17.289Z,5.80
2022-10-07T05:28:49.400Z,5.80
2022-10-07T05:31:23.403Z,5.80
2022-10-07T05:33:55.404Z,5.80
2022-10-07T05:36:24.599Z,5.70
2022-10-07T05:38:57.997Z,5.70
2022-10-07T05:41:29.572Z,5.70
2022-10-07T05:43:57.679Z,5.70
2022-10-07T05:46:26.014Z,5.70
2022-10-07T05:48:56.861Z,5.70
2022-10-07T05:51:27.285Z,5.70
2022-10-07T05:53:57.519Z,5.70
2022-10-07T05:56:31.950Z,5.60
2022-10-07T05:58:59.203Z,5.70
2022-10-07T06:01:28.573Z,5.60
2022-10-07T06:03:57.920Z,5.60
2022-10-07T06:06:30.040Z,5.60
2022-10-07T06:09:21.248Z,5.60
2022-10-07T06:12:07.704Z,5.60
2022-10-07T06:14:36.954Z,5.60
2022-10-07T06:17:05.161Z,5.60
2022-10-07T06:19:32.423Z,5.60
2022-10-07T06:22:01.651Z,5.60
2022-10-07T06:24:28.693Z,5.60
2022-10-07T06:26:56.181Z,5.60
2022-10-07T06:29:24.251Z,5.70
2022-10-07T06:31:51.330Z,5.70
2022-10-07T06:34:19.247Z,5.70
2022-10-07T06:36:46.888Z,5.70
2022-10-07T06:39:17.659Z,5.70
2022-10-07T06:41:46.340Z,5.80
2022-10-07T06:44:38.047Z,5.80
2022-10-07T06:47:10.642Z,5.80
2022-10-07T06:49:39.384Z,5.90
2022-10-07T06:52:07.116Z,5.90
2022-10-07T06:54:34.527Z,6.00
2022-10-07T06:57:01.419Z,6.00
2022-10-07T06:59:29.245Z,6.10
2022-10-07T07:02:03.213Z,6.20
2022-10-07T07:04:31.613Z,6.30
2022-10-07T07:06:58.830Z,6.30
2022-10-07T07:09:26.186Z,6.40
2022-10-07T07:11:56.555Z,6.50
2022-10-07T07:14:29.269Z,6.50
2022-10-07T07:17:02.684Z,6.60
2022-10-07T07:19:30.226Z,6.70
2022-10-07T07:21:57.323Z,6.80
2022-10-07T07:24:26.474Z,6.90
2022-10-07T07:26:53.712Z,7.00
2022-10-07T07:29:22.036Z,7.10
2022-10-07T07:31:56.310Z,7.20
2022-10-07T07:34:25.991Z,7.20
2022-10-07T07:36:52.931Z,7.40
2022-10-07T07:39:23.840Z,7.50
2022-10-07T07:41:57.155Z,7.60
2022-10-07T07:44:25.427Z,7.70
2022-10-07T07:46:56.100Z,7.80
2022-10-07T07:49:24.537Z,7.90
2022-10-07T07:51:52.201Z,8.00
2022-10-07T07:54:28.498Z,8.10
2022-10-07T07:56:57.645Z,8.20
2022-10-07T07:59:26.777Z,8.30
2022-10-07T08:01:56.191Z,8.50
2022-10-07T08:04:23.736Z,8.60
2022-10-07T08:06:51.108Z,8.70
2022-10-07T08:09:19.025Z,8.80
2022-10-07T08:11:47.576Z,9.00
2022-10-07T08:14:17.823Z,9.10
2022-10-07T08:16:48.152Z,9.20
2022-10-07T08:19:15.339Z,9.30
2022-10-07T08:21:42.409Z,9.50
2022-10-07T08:24:14.409Z,9.60
2022-10-07T08:26:41.464Z,9.80
2022-10-07T08:29:13.530Z,9.90
2022-10-07T08:31:42.451Z,10.10
2022-10-07T08:34:11.260Z,10.20
2022-10-07T08:36:39.582Z,10.40
2022-10-07T08:39:07.175Z,10.50
2022-10-07T08:42:16.267Z,10.60
2022-10-07T08:44:50.820Z,10.80
2022-10-07T08:47:38.599Z,11.00
2022-10-07T08:50:19.822Z,11.20
2022-10-07T08:52:50.931Z,11.30
2022-10-07T08:55:27.964Z,11.50
2022-10-07T08:58:30.938Z,11.60
2022-10-07T09:01:15.695Z,11.90
2022-10-07T09:03:53.495Z,12.00
2022-10-07T09:06:45.465Z,12.20
2022-10-07T09:09:23.583Z,12.40
2022-10-07T09:11:52.780Z,12.60
2022-10-07T09:14:38.398Z,12.80
2022-10-07T09:17:22.003Z,13.00
2022-10-07T09:19:56.594Z,13.20
2022-10-07T09:22:39.621Z,13.40
2022-10-07T09:25:13.514Z,13.60
2022-10-07T09:27:40.383Z,13.80
2022-10-07T09:30:12.969Z,13.90
2022-10-07T09:32:45.167Z,14.10
2022-10-07T09:35:22.013Z,14.30
2022-10-07T09:38:09.905Z,14.50
2022-10-07T09:41:05.930Z,14.70
2022-10-07T09:43:35.100Z,14.80
2022-10-07T09:46:02.545Z,15.00
2022-10-07T09:48:34.231Z,15.10
2022-10-07T09:51:15.719Z,15.30
2022-10-07T09:54:18.352Z,15.40
2022-10-07T09:56:47.100Z,15.60
2022-10-07T09:59:30.138Z,15.80
2022-10-07T10:02:18.760Z,15.90
2022-10-07T10:04:56.376Z,16.00
2022-10-07T10:07:55.286Z,16.20
2022-10-07T10:10:29.956Z,16.30
2022-10-07T10:13:00.495Z,16.40
2022-10-07T10:15:36.361Z,16.60
2022-10-07T10:18:34.148Z,16.70
2022-10-07T10:21:28.550Z,16.80
2022-10-07T10:24:15.048Z,16.90
2022-10-07T10:27:12.892Z,17.00
2022-10-07T10:30:04.324Z,17.10
2022-10-07T10:32:55.611Z,17.20
2022-10-07T10:35:30.927Z,17.40
2022-10-07T10:38:48.098Z,17.50
2022-10-07T10:41:50.611Z,17.60
2022-10-07T10:44:59.928Z,17.70
2022-10-07T10:48:25.655Z,17.80
2022-10-07T10:51:14.054Z,17.90
2022-10-07T10:54:20.384Z,18.00
2022-10-07T10:57:17.482Z,18.10
2022-10-07T11:00:17.703Z,18.10
2022-10-07T11:02:59.640Z,18.20
2022-10-07T11:05:32.744Z,18.30
2022-10-07T11:08:27.325Z,18.40
2022-10-07T11:11:17.237Z,18.50
2022-10-07T11:14:14.047Z,18.60
2022-10-07T11:17:01.309Z,18.70
2022-10-07T11:19:55.191Z,18.80
2022-10-07T11:22:36.326Z,18.90
2022-10-07T11:25:33.017Z,18.90
2022-10-07T11:28:16.938Z,19.00
2022-10-07T11:31:13.661Z,19.10
2022-10-07T11:34:13.475Z,19.10
2022-10-07T11:37:03.151Z,19.20
2022-10-07T11:39:30.424Z,19.30
2022-10-07T11:42:12.000Z,19.40
2022-10-07T11:45:17.804Z,19.50
2022-10-07T11:47:59.800Z,19.50
2022-10-07T11:50:35.343Z,19.60
2022-10-07T11:53:18.961Z,19.60
2022-10-07T11:55:58.316Z,19.70
2022-10-07T11:58:37.240Z,19.70
2022-10-07T12:01:25.803Z,19.70
2022-10-07T12:04:12.903Z,19.80
2022-10-07T12:06:39.832Z,19.90
2022-10-07T12:10:03.244Z,19.80
2022-10-07T12:12:45.066Z,19.90
2022-10-07T12:15:32.581Z,19.90
2022-10-07T12:18:06.124Z,20.00
2022-10-07T12:20:34.541Z,20.10
2022-10-07T12:23:23.915Z,20.10
2022-10-07T12:26:25.948Z,20.10
2022-10-07T12:28:53.690Z,20.20
2022-10-07T12:31:23.704Z,20.20
2022-10-07T12:33:58.696Z,20.30
2022-10-07T12:36:28.096Z,20.40
2022-10-07T12:38:56.191Z,20.40
2022-10-07T12:41:40.131Z,20.40
2022-10-07T12:44:27.348Z,20.40
2022-10-07T12:47:05.048Z,20.50
2022-10-07T12:49:49.104Z,20.50
2022-10-07T12:52:42.162Z,20.60
2022-10-07T12:55:29.457Z,20.60
2022-10-07T12:58:18.359Z,20.60
2022-10-07T13:01:26.310Z,20.70
2022-10-07T13:04:32.982Z,20.70
2022-10-07T13:07:40.349Z,20.70
2022-10-07T13:10:41.405Z,20.70
2022-10-07T13:13:26.159Z,20.80
2022-10-07T13:16:13.744Z,20.80
2022-10-07T13:19:04.362Z,20.80
2022-10-07T13:21:43.107Z,20.80
2022-10-07T13:24:20.582Z,20.80
2022-10-07T13:26:47.857Z,20.90
2022-10-07T13:29:35.671Z,20.80
2022-10-07T13:32:18.427Z,20.80
2022-10-07T13:34:46.318Z,20.90
2022-10-07T13:37:28.504Z,20.90
2022-10-07T13:39:58.062Z,20.90
2022-10-07T13:42:29.512Z,20.90
2022-10-07T13:45:02.987Z,20.90
2022-10-07T13:47:36.622Z,20.90
2022-10-07T13:50:04.537Z,20.90
2022-10-07T13:52:41.743Z,20.90
2022-10-07T13:55:34.258Z,20.90
2022-10-07T13:58:06.500Z,20.90
2022-10-07T14:00:40.316Z,20.90
2022-10-07T14:03:18.320Z,20.90
2022-10-07T14:05:53.987Z,21.00
2022-10-07T14:08:29.632Z,21.00
2022-10-07T14:11:04.159Z,21.00
2022-10-07T14:13:34.533Z,21.00
2022-10-07T14:16:01.732Z,21.00
2022-10-07T14:18:31.243Z,21.00
2022-10-07T14:21:16.999Z,21.00
2022-10-07T14:23:49.439Z,21.00
2022-10-07T14:26:17.630Z,21.00
2022-10-07T14:28:45.264Z,21.00
2022-10-07T14:31:39.484Z,20.90
2022-10-07T14:34:38.569Z,20.90
2022-10-07T14:37:09.402Z,20.90
2022-10-07T14:39:42.392Z,20.90
2022-10-07T14:42:18.305Z,20.90
2022-10-07T14:44:46.599Z,20.90
2022-10-07T14:47:20.902Z,20.80
2022-10-07T14:49:48.701Z,20.80
2022-10-07T14:52:43.568Z,20.70
2022-10-07T14:55:22.028Z,20.70
2022-10-07T14:57:49.516Z,20.70
2022-10-07T15:00:24.028Z,20.70
2022-10-07T15:02:51.322Z,20.70
2022-10-07T15:05:18.903Z,20.70
2022-10-07T15:07:45.892Z,20.70
2022-10-07T15:10:18.133Z,20.60
2022-10-07T15:12:45.789Z,20.60
2022-10-07T15:15:14.742Z,20.50
2022-10-07T15:17:42.997Z,20.50
2022-10-07T15:20:14.187Z,20.40
2022-10-07T15:22:42.908Z,20.40
2022-10-07T15:25:11.782Z,20.30
2022-10-07T15:27:38.892Z,20.30
2022-10-07T15:30:07.190Z,20.30
2022-10-07T15:32:34.477Z,20.20
2022-10-07T15:35:01.730Z,20.20
2022-10-07T15:37:28.722Z,20.20
2022-10-07T15:39:55.523Z,20.10
2022-10-07T15:42:26.095Z,20.10
2022-10-07T15:44:53.208Z,20.00
2022-10-07T15:47:20.240Z,20.00
2022-10-07T15:49:47.350Z,19.90
2022-10-07T15:52:14.222Z,19.80
2022-10-07T15:54:41.352Z,19.80
2022-10-07T15:57:08.440Z,19.70
2022-10-07T15:59:35.911Z,19.60
2022-10-07T16:02:05.771Z,19.50
2022-10-07T16:04:32.866Z,19.50
2022-10-07T16:06:59.784Z,19.40
2022-10-07T16:09:27.044Z,19.30
2022-10-07T16:11:54.091Z,19.20
2022-10-07T16:14:21.236Z,19.10
2022-10-07T16:16:48.210Z,19.00
2022-10-07T16:19:15.130Z,19.00
2022-10-07T16:21:43.759Z,18.80
2022-10-07T16:24:17.410Z,18.70
2022-10-07T16:26:46.130Z,18.70
2022-10-07T16:29:43.579Z,18.60
2022-10-07T16:32:11.957Z,18.40
2022-10-07T16:34:43.198Z,18.30
2022-10-07T16:37:11.863Z,18.20
2022-10-07T16:39:38.782Z,18.10
2022-10-07T16:42:05.957Z,18.00
2022-10-07T16:44:33.053Z,17.90
2022-10-07T16:47:00.175Z,17.80
2022-10-07T16:49:29.189Z,17.70
2022-10-07T16:51:57.632Z,17.60
2022-10-07T16:54:25.309Z,17.50
2022-10-07T16:56:53.158Z,17.40
2022-10-07T16:59:24.713Z,17.30
2022-10-07T17:01:57.049Z,17.20
2022-10-07T17:04:25.583Z,17.10
2022-10-07T17:06:53.335Z,17.00
2022-10-07T17:09:21.720Z,16.90
2022-10-07T17:11:48.585Z,16.80
2022-10-07T17:14:23.436Z,16.70
2022-10-07T17:16:56.335Z,16.60
2022-10-07T17:19:26.639Z,16.60
2022-10-07T17:21:56.178Z,16.50
2022-10-07T17:24:23.841Z,16.40
2022-10-07T17:26:52.383Z,16.30
2022-10-07T17:29:21.445Z,16.30
2022-10-07T17:31:50.460Z,16.20
2022-10-07T17:34:20.661Z,16.10
2022-10-07T17:36:49.374Z,16.00
2022-10-07T17:39:18.899Z,16.00
2022-10-07T17:41:46.475Z,15.90
2022-10-07T17:44:13.581Z,15.80
2022-10-07T17:46:41.296Z,15.80
2022-10-07T17:49:13.502Z,15.70
2022-10-07T17:51:42.799Z,15.60
2022-10-07T17:54:12.524Z,15.50
2022-10-07T17:56:39.799Z,15.50
2022-10-07T17:59:06.876Z,15.40
2022-10-07T18:01:35.410Z,15.40
2022-10-07T18:04:09.446Z,15.30
2022-10-07T18:06:38.960Z,15.30
2022-10-07T18:09:08.078Z,15.20
2022-10-07T18:11:54.242Z,15.10
2022-10-07T18:14:40.060Z,15.10
2022-10-07T18:17:08.988Z,15.00
2022-10-07T18:19:36.309Z,14.90
2022-10-07T18:22:03.306Z,14.90
2022-10-07T18:24:30.210Z,14.80
2022-10-07T18:26:59.419Z,14.70
2022-10-07T18:29:33.270Z,14.70
2022-10-07T18:32:01.213Z,14.60
2022-10-07T18:34:28.169Z,14.60
2022-10-07T18:36:57.096Z,14.50
2022-10-07T18:39:29.317Z,14.50
2022-10-07T18:41:57.125Z,14.40
2022-10-07T18:44:24.021Z,14.40
2022-10-07T18:46:51.437Z,14.30
2022-10-07T18:49:18.542Z,14.30
2022-10-07T18:51:50.417Z,14.20
2022-10-07T18:54:19.007Z,14.20
2022-10-07T18:56:50.734Z,14.10
2022-10-07T18:59:19.759Z,14.10
2022-10-07T19:01:50.525Z,14.00
2022-10-07T19:04:19.362Z,14.00
2022-10-07T19:06:47.286Z,13.90
2022-10-07T19:09:18.961Z,13.90
2022-10-07T19:11:46.656Z,13.80
2022-10-07T19:14:14.257Z,13.80
2022-10-07T19:16:43.386Z,13.70
2022-10-07T19:19:15.494Z,13.70
2022-10-07T19:21:47.558Z,13.70
2022-10-07T19:24:16.060Z,13.60
2022-10-07T19:26:50.167Z,13.60
2022-10-07T19:29:17.975Z,13.50
2022-10-07T19:31:51.170Z,13.50
2022-10-07T19:34:21.868Z,13.40
2022-10-07T19:36:49.893Z,13.40
2022-10-07T19:39:22.022Z,13.30
2022-10-07T19:41:50.886Z,13.30
2022-10-07T19:44:18.591Z,13.30
2022-10-07T19:46:50.464Z,13.20
2022-10-07T19:49:17.403Z,13.20
2022-10-07T19:51:45.443Z,13.10
2022-10-07T19:54:13.036Z,13.10
2022-10-07T19:56:40.908Z,13.00
2022-10-07T19:59:11.872Z,13.00
2022-10-07T20:01:45.211Z,12.90
2022-10-07T20:04:20.516Z,12.90
2022-10-07T20:06:48.571Z,12.80
2022-10-07T20:09:18.755Z,12.80
2022-10-07T20:11:46.775Z,12.70
2022-10-07T20:14:15.981Z,12.70
2022-10-07T20:16:43.487Z,12.60
2022-10-07T20:19:18.997Z,12.60
2022-10-07T20:21:46.474Z,12.60
2022-10-07T20:24:16.153Z,12.50
2022-10-07T20:26:44.379Z,12.50
2022-10-07T20:29:13.684Z,12.40
2022-10-07T20:31:42.148Z,12.40
2022-10-07T20:34:18.294Z,12.30
2022-10-07T20:36:45.331Z,12.30
2022-10-07T20:39:37.575Z,12.30
2022-10-07T20:42:21.552Z,12.20
2022-10-07T20:44:49.675Z,12.20
2022-10-07T20:47:18.279Z,12.20
2022-10-07T20:49:45.584Z,12.10
2022-10-07T20:52:16.940Z,12.10
2022-10-07T20:54:45.531Z,12.10
2022-10-07T20:57:16.184Z,12.00
2022-10-07T20:59:43.619Z,12.00
2022-10-07T21:02:13.793Z,12.00
2022-10-07T21:04:40.799Z,12.00
2022-10-07T21:07:08.413Z,11.90
2022-10-07T21:09:39.803Z,11.90
2022-10-07T21:12:13.587Z,11.80
2022-10-07T21:14:40.693Z,11.80
2022-10-07T21:17:08.339Z,11.80
2022-10-07T21:19:36.492Z,11.70
2022-10-07T21:22:05.845Z,11.70
2022-10-07T21:24:36.734Z,11.70
2022-10-07T21:27:07.583Z,11.60
2022-10-07T21:29:40.151Z,11.60
2022-10-07T21:32:09.297Z,11.60
2022-10-07T21:34:39.470Z,11.50
2022-10-07T21:37:07.108Z,11.50
2022-10-07T21:39:35.109Z,11.50
2022-10-07T21:42:02.087Z,11.50
2022-10-07T21:44:29.343Z,11.40
2022-10-07T21:46:59.756Z,11.40
2022-10-07T21:49:26.850Z,11.40
2022-10-07T21:51:53.818Z,11.40
2022-10-07T21:54:20.997Z,11.30
2022-10-07T21:56:49.519Z,11.30
2022-10-07T21:59:16.573Z,11.30
2022-10-07T22:01:43.469Z,11.20
2022-10-07T22:04:18.245Z,11.20
2022-10-07T22:07:04.952Z,11.20
2022-10-07T22:09:32.153Z,11.10
2022-10-07T22:11:59.905Z,11.10
2022-10-07T22:14:27.673Z,11.10
2022-10-07T22:16:54.724Z,11.10
2022-10-07T22:19:22.874Z,11.00
2022-10-07T22:21:49.943Z,11.00
2022-10-07T22:24:16.787Z,11.00
2022-10-07T22:26:48.091Z,10.90
2022-10-07T22:29:18.137Z,10.90
2022-10-07T22:31:45.708Z,10.90
2022-10-07T22:34:33.025Z,10.80
2022-10-07T22:37:00.290Z,10.80
2022-10-07T22:39:28.900Z,10.80
2022-10-07T22:42:00.959Z,10.70
2022-10-07T22:44:28.587Z,10.70
2022-10-07T22:46:56.778Z,10.70
2022-10-07T22:49:29.403Z,10.60
2022-10-07T22:51:59.373Z,10.60
2022-10-07T22:54:26.813Z,10.50
2022-10-07T22:56:53.660Z,10.50
2022-10-07T22:59:21.167Z,10.50
2022-10-07T23:01:48.062Z,10.40
2022-10-07T23:04:15.020Z,10.40
2022-10-07T23:06:41.839Z,10.40
2022-10-07T23:09:08.863Z,10.40
2022-10-07T23:11:35.726Z,10.30
2022-10-07T23:14:02.586Z,10.30
2022-10-07T23:16:30.278Z,10.30
2022-10-07T23:18:58.977Z,10.20
2022-10-07T23:21:29.263Z,10.20
2022-10-07T23:24:06.012Z,10.10
2022-10-07T23:26:34.347Z,10.10
2022-10-07T23:29:02.136Z,10.10
2022-10-07T23:31:31.661Z,10.10
2022-10-07T23:34:00.909Z,10.00
2022-10-07T23:36:28.599Z,10.00
2022-10-07T23:38:55.970Z,10.00
2022-10-07T23:41:27.440Z,9.90
2022-10-07T23:44:00.453Z,9.90
2022-10-07T23:46:29.630Z,9.90
2022-10-07T23:48:56.471Z,9.80
2022-10-07T23:51:27.780Z,9.80
2022-10-07T23:53:59.500Z,9.70
2022-10-07T23:56:26.619Z,9.80
2022-10-07T23:58:53.467Z,9.70
